sensor_id;sensor_type;location;lat;lon;timestamp;temperature;humidity
52947;DHT22;68773;40.400;17.260;2023-04-08T13:25:57;17.60;64.30
52947;DHT22;68773;40.400;17.260;2023-04-08T13:28:23;17.50;66.30
52947;DHT22;68773;40.400;17.260;2023-04-08T13:30:49;17.30;66.70
52947;DHT22;68773;40.400;17.260;2023-04-08T13:33:15;17.30;67.60
52947;DHT22;68773;40.400;17.260;2023-04-08T13:36:41;16.40;66.60
52947;DHT22;68773;40.400;17.260;2023-04-08T13:39:07;16.60;66.30
52947;DHT22;68773;40.400;17.260;2023-04-08T13:41:32;16.60;66.40
52947;DHT22;68773;40.400;17.260;2023-04-08T13:43:59;16.60;67.00
52947;DHT22;68773;40.400;17.260;2023-04-08T13:46:25;16.60;65.60
52947;DHT22;68773;40.400;17.260;2023-04-08T13:48:51;16.50;66.60
52947;DHT22;68773;40.400;17.260;2023-04-08T13:51:16;16.50;66.30
52947;DHT22;68773;40.400;17.260;2023-04-08T13:53:42;16.60;64.10
52947;DHT22;68773;40.400;17.260;2023-04-08T13:56:08;16.70;62.50
52947;DHT22;68773;40.400;17.260;2023-04-08T13:58:33;16.50;64.30
52947;DHT22;68773;40.400;17.260;2023-04-08T14:00:59;16.50;62.80
52947;DHT22;68773;40.400;17.260;2023-04-08T14:03:25;16.40;65.10
52947;DHT22;68773;40.400;17.260;2023-04-08T14:05:50;16.70;65.40
52947;DHT22;68773;40.400;17.260;2023-04-08T14:08:16;16.80;63.80
52947;DHT22;68773;40.400;17.260;2023-04-08T14:10:50;16.90;62.70
52947;DHT22;68773;40.400;17.260;2023-04-08T14:13:16;16.80;62.80
52947;DHT22;68773;40.400;17.260;2023-04-08T14:15:42;16.80;63.60
52947;DHT22;68773;40.400;17.260;2023-04-08T14:18:07;16.60;63.20
52947;DHT22;68773;40.400;17.260;2023-04-08T14:20:33;16.50;64.30
52947;DHT22;68773;40.400;17.260;2023-04-08T14:23:00;16.70;64.50
52947;DHT22;68773;40.400;17.260;2023-04-08T14:25:25;16.60;62.00
52947;DHT22;68773;40.400;17.260;2023-04-08T14:27:52;16.50;61.80
52947;DHT22;68773;40.400;17.260;2023-04-08T14:30:17;16.40;63.40
52947;DHT22;68773;40.400;17.260;2023-04-08T14:32:43;16.70;62.60
52947;DHT22;68773;40.400;17.260;2023-04-08T14:35:09;16.80;64.70
52947;DHT22;68773;40.400;17.260;2023-04-08T14:37:35;16.60;64.80
52947;DHT22;68773;40.400;17.260;2023-04-08T14:40:03;16.40;65.80
52947;DHT22;68773;40.400;17.260;2023-04-08T14:42:29;16.40;66.50
52947;DHT22;68773;40.400;17.260;2023-04-08T14:44:54;16.40;66.40
52947;DHT22;68773;40.400;17.260;2023-04-08T14:47:22;16.10;67.20
52947;DHT22;68773;40.400;17.260;2023-04-08T14:49:48;16.10;66.30
52947;DHT22;68773;40.400;17.260;2023-04-08T14:52:13;16.10;65.40
52947;DHT22;68773;40.400;17.260;2023-04-08T14:54:39;16.00;66.20
52947;DHT22;68773;40.400;17.260;2023-04-08T14:57:06;16.20;63.00
52947;DHT22;68773;40.400;17.260;2023-04-08T14:59:32;16.00;67.20
52947;DHT22;68773;40.400;17.260;2023-04-08T15:01:57;15.90;66.70
52947;DHT22;68773;40.400;17.260;2023-04-08T15:04:23;15.90;67.70
52947;DHT22;68773;40.400;17.260;2023-04-08T15:06:49;16.00;70.00
52947;DHT22;68773;40.400;17.260;2023-04-08T15:09:14;16.10;69.60
52947;DHT22;68773;40.400;17.260;2023-04-08T15:11:40;16.00;70.00
52947;DHT22;68773;40.400;17.260;2023-04-08T15:14:06;16.00;68.90
52947;DHT22;68773;40.400;17.260;2023-04-08T15:16:32;16.00;67.30
52947;DHT22;68773;40.400;17.260;2023-04-08T15:18:58;16.00;66.20
52947;DHT22;68773;40.400;17.260;2023-04-08T15:21:26;16.10;65.20
52947;DHT22;68773;40.400;17.260;2023-04-08T15:23:52;16.00;64.20
52947;DHT22;68773;40.400;17.260;2023-04-08T15:26:18;16.00;65.50
52947;DHT22;68773;40.400;17.260;2023-04-08T15:28:44;15.90;66.20
52947;DHT22;68773;40.400;17.260;2023-04-08T15:31:10;15.80;66.80
52947;DHT22;68773;40.400;17.260;2023-04-08T15:33:35;15.60;68.00
52947;DHT22;68773;40.400;17.260;2023-04-08T15:36:06;15.50;69.10
52947;DHT22;68773;40.400;17.260;2023-04-08T15:38:32;15.20;69.40
52947;DHT22;68773;40.400;17.260;2023-04-08T15:41:00;14.90;71.40
52947;DHT22;68773;40.400;17.260;2023-04-08T15:43:26;14.60;72.50
52947;DHT22;68773;40.400;17.260;2023-04-08T15:45:52;14.40;73.50
52947;DHT22;68773;40.400;17.260;2023-04-08T15:48:18;14.40;73.10
52947;DHT22;68773;40.400;17.260;2023-04-08T15:50:44;14.60;73.10
52947;DHT22;68773;40.400;17.260;2023-04-08T15:53:10;14.70;73.40
52947;DHT22;68773;40.400;17.260;2023-04-08T15:55:37;14.90;72.70
52947;DHT22;68773;40.400;17.260;2023-04-08T15:58:03;14.90;72.10
52947;DHT22;68773;40.400;17.260;2023-04-08T16:00:29;14.70;73.70
52947;DHT22;68773;40.400;17.260;2023-04-08T16:02:54;14.50;74.20
52947;DHT22;68773;40.400;17.260;2023-04-08T16:05:20;14.30;75.20
52947;DHT22;68773;40.400;17.260;2023-04-08T16:07:46;14.20;74.80
52947;DHT22;68773;40.400;17.260;2023-04-08T16:10:12;14.20;74.80
52947;DHT22;68773;40.400;17.260;2023-04-08T16:12:38;14.40;75.50
52947;DHT22;68773;40.400;17.260;2023-04-08T16:15:04;14.30;75.90
52947;DHT22;68773;40.400;17.260;2023-04-08T16:17:30;14.10;75.10
52947;DHT22;68773;40.400;17.260;2023-04-08T16:19:56;14.00;74.60
52947;DHT22;68773;40.400;17.260;2023-04-08T16:22:22;13.90;74.90
52947;DHT22;68773;40.400;17.260;2023-04-08T16:24:47;13.80;75.90
52947;DHT22;68773;40.400;17.260;2023-04-08T16:27:13;13.80;76.10
52947;DHT22;68773;40.400;17.260;2023-04-08T16:29:39;13.70;76.40
52947;DHT22;68773;40.400;17.260;2023-04-08T16:32:05;13.70;76.90
52947;DHT22;68773;40.400;17.260;2023-04-08T16:34:31;13.70;76.80
52947;DHT22;68773;40.400;17.260;2023-04-08T16:36:56;13.70;76.80
52947;DHT22;68773;40.400;17.260;2023-04-08T16:39:22;13.70;77.50
52947;DHT22;68773;40.400;17.260;2023-04-08T16:41:48;13.60;76.80
52947;DHT22;68773;40.400;17.260;2023-04-08T16:44:14;13.60;77.90
52947;DHT22;68773;40.400;17.260;2023-04-08T16:46:40;13.60;78.90
52947;DHT22;68773;40.400;17.260;2023-04-08T16:49:07;13.60;78.70
52947;DHT22;68773;40.400;17.260;2023-04-08T16:51:32;13.50;78.80
52947;DHT22;68773;40.400;17.260;2023-04-08T16:53:58;13.50;79.60
52947;DHT22;68773;40.400;17.260;2023-04-08T16:56:24;13.40;80.60
52947;DHT22;68773;40.400;17.260;2023-04-08T16:58:50;13.40;80.20
52947;DHT22;68773;40.400;17.260;2023-04-08T17:01:16;13.30;79.90
52947;DHT22;68773;40.400;17.260;2023-04-08T17:03:42;13.40;79.30
52947;DHT22;68773;40.400;17.260;2023-04-08T17:06:09;13.40;76.90
52947;DHT22;68773;40.400;17.260;2023-04-08T17:08:36;13.30;76.60
52947;DHT22;68773;40.400;17.260;2023-04-08T17:11:10;13.40;76.60
52947;DHT22;68773;40.400;17.260;2023-04-08T17:13:37;13.20;76.70
52947;DHT22;68773;40.400;17.260;2023-04-08T17:16:04;13.30;77.90
52947;DHT22;68773;40.400;17.260;2023-04-08T17:18:30;13.20;78.40
52947;DHT22;68773;40.400;17.260;2023-04-08T17:20:56;13.20;79.10
52947;DHT22;68773;40.400;17.260;2023-04-08T17:23:22;13.20;77.80
52947;DHT22;68773;40.400;17.260;2023-04-08T17:25:47;13.20;77.90
52947;DHT22;68773;40.400;17.260;2023-04-08T17:28:13;13.10;77.80
52947;DHT22;68773;40.400;17.260;2023-04-08T17:30:39;13.10;78.70
52947;DHT22;68773;40.400;17.260;2023-04-08T17:33:05;13.10;78.50
52947;DHT22;68773;40.400;17.260;2023-04-08T17:35:31;13.00;78.30
52947;DHT22;68773;40.400;17.260;2023-04-08T17:37:57;13.00;79.90
52947;DHT22;68773;40.400;17.260;2023-04-08T17:40:23;13.10;79.80
